Time,TemperatureF,DewpointF,PressureIn,WindDirection,WindDirectionDegrees,WindSpeedMPH,WindSpeedGustMPH,Humidity,HourlyPrecipIn,Conditions,Clouds,dailyrainin,SoftwareType,DateUTC
2013-01-24 00:01:00,13.8,5.0,29.23,West,270,2.0,5.0,67,0.00,,,0.00,meteohub,2013-01-24 05:01:00,
2013-01-24 00:03:00,13.8,5.0,29.23,NNW,338,2.0,5.0,67,0.00,,,0.00,meteohub,2013-01-24 05:03:00,
2013-01-24 00:04:00,13.8,5.0,29.23,NW,315,0.0,5.0,67,0.00,,,0.00,meteohub,2013-01-24 05:04:00,
2013-01-24 00:09:00,13.8,5.0,29.23,West,270,3.0,3.0,67,0.00,,,0.00,meteohub,2013-01-24 05:09:00,
2013-01-24 00:14:00,13.6,4.8,29.23,WSW,248,4.0,4.0,67,0.00,,,0.00,meteohub,2013-01-24 05:14:00,
2013-01-24 00:20:00,13.6,4.8,29.23,NW,315,4.0,5.0,67,0.00,,,0.00,meteohub,2013-01-24 05:20:00,
2013-01-24 00:25:00,13.5,4.6,29.23,NW,315,5.0,5.0,67,0.00,,,0.00,meteohub,2013-01-24 05:25:00,
2013-01-24 00:30:00,13.5,4.6,29.23,NW,315,1.0,5.0,67,0.00,,,0.00,meteohub,2013-01-24 05:30:00,
2013-01-24 00:35:00,13.3,4.5,29.23,WSW,248,3.0,5.0,67,0.00,,,0.00,meteohub,2013-01-24 05:35:00,
2013-01-24 00:40:00,13.3,4.5,29.23,WNW,292,0.0,3.0,67,0.00,,,0.00,meteohub,2013-01-24 05:40:00,
2013-01-24 00:45:00,12.9,4.1,29.23,NE,45,0.0,3.0,67,0.00,,,0.00,meteohub,2013-01-24 05:45:00,
2013-01-24 00:50:00,12.9,4.1,29.23,WSW,248,0.0,3.0,67,0.00,,,0.00,meteohub,2013-01-24 05:50:00,
2013-01-24 00:55:00,12.7,3.9,29.23,West,270,1.0,3.0,67,0.00,,,0.00,meteohub,2013-01-24 05:55:00,
2013-01-24 01:01:00,12.7,3.9,29.23,WSW,248,0.0,3.0,67,0.00,,,0.00,meteohub,2013-01-24 06:01:00,
2013-01-24 01:06:00,12.6,3.7,29.23,NW,315,1.0,3.0,67,0.00,,,0.00,meteohub,2013-01-24 06:06:00,
2013-01-24 01:11:00,12.6,3.7,29.23,NNE,22,2.0,3.0,67,0.00,,,0.00,meteohub,2013-01-24 06:11:00,
2013-01-24 01:16:00,12.4,3.6,29.23,NNW,338,3.0,4.0,67,0.00,,,0.00,meteohub,2013-01-24 06:16:00,
2013-01-24 01:21:00,12.2,3.4,29.23,WNW,292,2.0,6.0,67,0.00,,,0.00,meteohub,2013-01-24 06:21:00,
2013-01-24 01:26:00,12.0,3.2,29.23,NW,315,2.0,6.0,67,0.00,,,0.00,meteohub,2013-01-24 06:26:00,
2013-01-24 01:31:00,12.0,3.2,29.26,NW,315,5.0,6.0,67,0.00,,,0.00,meteohub,2013-01-24 06:31:00,
2013-01-24 01:36:00,11.8,3.0,29.26,NW,315,3.0,5.0,67,0.00,,,0.00,meteohub,2013-01-24 06:36:00,
2013-01-24 01:41:00,11.7,2.8,29.26,NW,315,0.0,5.0,67,0.00,,,0.00,meteohub,2013-01-24 06:41:00,
2013-01-24 01:47:00,11.5,2.7,29.26,NW,315,1.0,5.0,67,0.00,,,0.00,meteohub,2013-01-24 06:47:00,
2013-01-24 01:52:00,11.3,2.5,29.26,NNW,338,3.0,3.0,67,0.00,,,0.00,meteohub,2013-01-24 06:52:00,
2013-01-24 01:57:00,11.1,2.3,29.26,NW,315,1.0,3.0,67,0.00,,,0.00,meteohub,2013-01-24 06:57:00,
2013-01-24 02:02:00,11.1,2.3,29.29,NNW,338,2.0,3.0,67,0.00,,,0.00,meteohub,2013-01-24 07:02:00,
2013-01-24 02:07:00,11.1,2.3,29.29,North,0,1.0,3.0,67,0.00,,,0.00,meteohub,2013-01-24 07:07:00,
2013-01-24 02:12:00,11.1,2.3,29.29,North,0,1.0,3.0,67,0.00,,,0.00,meteohub,2013-01-24 07:12:00,
2013-01-24 02:17:00,11.1,2.3,29.29,North,0,1.0,4.0,67,0.00,,,0.00,meteohub,2013-01-24 07:17:00,
2013-01-24 02:23:00,10.9,2.1,29.29,North,0,3.0,5.0,67,0.00,,,0.00,meteohub,2013-01-24 07:23:00,
2013-01-24 02:28:00,10.9,2.1,29.29,NNW,338,1.0,5.0,67,0.00,,,0.00,meteohub,2013-01-24 07:28:00,
2013-01-24 02:33:00,10.9,2.1,29.29,NNW,338,1.0,6.0,67,0.00,,,0.00,meteohub,2013-01-24 07:33:00,
2013-01-24 02:38:00,10.8,1.9,29.29,NW,315,2.0,6.0,67,0.00,,,0.00,meteohub,2013-01-24 07:38:00,
2013-01-24 02:43:00,10.8,1.9,29.32,NW,315,4.0,4.0,67,0.00,,,0.00,meteohub,2013-01-24 07:43:00,
2013-01-24 02:48:00,10.8,1.9,29.32,NW,315,2.0,4.0,67,0.00,,,0.00,meteohub,2013-01-24 07:48:00,
2013-01-24 02:54:00,10.8,1.9,29.32,NNW,338,3.0,5.0,67,0.00,,,0.00,meteohub,2013-01-24 07:54:00,
2013-01-24 02:59:00,10.8,1.9,29.32,North,0,5.0,5.0,67,0.00,,,0.00,meteohub,2013-01-24 07:59:00,
2013-01-24 03:04:00,10.8,1.9,29.32,WNW,292,2.0,5.0,67,0.00,,,0.00,meteohub,2013-01-24 08:04:00,
2013-01-24 03:09:00,10.6,1.8,29.32,WNW,292,2.0,6.0,67,0.00,,,0.00,meteohub,2013-01-24 08:09:00,
2013-01-24 03:14:00,10.4,1.6,29.35,North,0,3.0,6.0,67,0.00,,,0.00,meteohub,2013-01-24 08:14:00,
2013-01-24 03:19:00,10.4,1.6,29.35,North,0,2.0,4.0,67,0.00,,,0.00,meteohub,2013-01-24 08:19:00,
2013-01-24 03:25:00,10.4,1.6,29.35,NNE,22,4.0,8.0,67,0.00,,,0.00,meteohub,2013-01-24 08:25:00,
2013-01-24 03:30:00,10.2,1.4,29.35,NNW,338,2.0,8.0,67,0.00,,,0.00,meteohub,2013-01-24 08:30:00,
2013-01-24 03:35:00,10.2,1.4,29.35,West,270,2.0,8.0,67,0.00,,,0.00,meteohub,2013-01-24 08:35:00,
2013-01-24 03:41:00,10.2,1.4,29.35,North,0,2.0,8.0,67,0.00,,,0.00,meteohub,2013-01-24 08:41:00,
2013-01-24 03:46:00,10.0,1.2,29.32,WNW,292,2.0,8.0,67,0.00,,,0.00,meteohub,2013-01-24 08:46:00,
2013-01-24 03:51:00,10.0,1.2,29.32,North,0,3.0,8.0,67,0.00,,,0.00,meteohub,2013-01-24 08:51:00,
2013-01-24 03:56:00,9.9,1.0,29.32,NW,315,2.0,8.0,67,0.00,,,0.00,meteohub,2013-01-24 08:56:00,
2013-01-24 04:01:00,10.0,1.2,29.35,WNW,292,3.0,8.0,67,0.00,,,0.00,meteohub,2013-01-24 09:01:00,
2013-01-24 04:06:00,9.9,1.0,29.35,WNW,292,2.0,6.0,67,0.00,,,0.00,meteohub,2013-01-24 09:06:00,
2013-01-24 04:12:00,9.9,1.0,29.35,WNW,292,4.0,6.0,67,0.00,,,0.00,meteohub,2013-01-24 09:12:00,
2013-01-24 04:17:00,9.7,0.9,29.38,North,0,1.0,6.0,67,0.00,,,0.00,meteohub,2013-01-24 09:17:00,
2013-01-24 04:22:00,9.7,0.9,29.38,NW,315,2.0,6.0,67,0.00,,,0.00,meteohub,2013-01-24 09:22:00,
2013-01-24 04:27:00,9.7,0.9,29.38,NW,315,1.0,8.0,67,0.00,,,0.00,meteohub,2013-01-24 09:27:00,
2013-01-24 04:32:00,9.7,0.9,29.38,West,270,1.0,8.0,67,0.00,,,0.00,meteohub,2013-01-24 09:32:00,
2013-01-24 04:37:00,9.7,0.9,29.38,West,270,2.0,8.0,67,0.00,,,0.00,meteohub,2013-01-24 09:37:00,
2013-01-24 04:42:00,9.5,0.9,29.41,WNW,292,3.0,6.0,67,0.00,,,0.00,meteohub,2013-01-24 09:42:00,
2013-01-24 04:47:00,9.7,0.9,29.41,West,270,1.0,5.0,67,0.00,,,0.00,meteohub,2013-01-24 09:47:00,
2013-01-24 04:52:00,9.7,0.9,29.41,West,270,1.0,5.0,67,0.00,,,0.00,meteohub,2013-01-24 09:52:00,
2013-01-24 04:57:00,10.0,1.2,29.41,NE,45,2.0,7.0,67,0.00,,,0.00,meteohub,2013-01-24 09:57:00,
2013-01-24 05:03:00,10.0,1.2,29.41,NW,315,3.0,7.0,67,0.00,,,0.00,meteohub,2013-01-24 10:03:00,
2013-01-24 05:08:00,10.0,1.2,29.41,WNW,292,3.0,7.0,67,0.00,,,0.00,meteohub,2013-01-24 10:08:00,
2013-01-24 05:13:00,10.2,1.4,29.38,SSW,202,2.0,8.0,67,0.00,,,0.00,meteohub,2013-01-24 10:13:00,
2013-01-24 05:18:00,10.4,1.6,29.38,North,0,2.0,8.0,67,0.00,,,0.00,meteohub,2013-01-24 10:18:00,
2013-01-24 05:23:00,10.4,1.6,29.38,WNW,292,6.0,9.0,67,0.00,,,0.00,meteohub,2013-01-24 10:23:00,
2013-01-24 05:29:00,10.8,1.9,29.44,North,0,2.0,9.0,67,0.00,,,0.00,meteohub,2013-01-24 10:29:00,
2013-01-24 05:34:00,10.9,2.1,29.44,WNW,292,2.0,9.0,67,0.00,,,0.00,meteohub,2013-01-24 10:34:00,
2013-01-24 05:39:00,11.1,2.3,29.44,WNW,292,5.0,7.0,67,0.00,,,0.00,meteohub,2013-01-24 10:39:00,
2013-01-24 05:44:00,11.1,2.3,29.47,NW,315,2.0,6.0,67,0.00,,,0.00,meteohub,2013-01-24 10:44:00,
2013-01-24 05:49:00,10.9,2.1,29.47,NNW,338,3.0,6.0,67,0.00,,,0.00,meteohub,2013-01-24 10:49:00,
2013-01-24 05:55:00,10.8,1.9,29.47,North,0,4.0,6.0,67,0.00,,,0.00,meteohub,2013-01-24 10:55:00,
2013-01-24 06:00:00,10.8,1.9,29.47,NW,315,2.0,6.0,67,0.00,,,0.00,meteohub,2013-01-24 11:00:00,
2013-01-24 06:05:00,10.4,1.6,29.47,NW,315,6.0,9.0,67,0.00,,,0.00,meteohub,2013-01-24 11:05:00,
2013-01-24 06:10:00,10.6,1.8,29.47,NW,315,1.0,9.0,67,0.00,,,0.00,meteohub,2013-01-24 11:10:00,
2013-01-24 06:15:00,10.4,1.6,29.47,NW,315,9.0,9.0,67,0.00,,,0.00,meteohub,2013-01-24 11:15:00,
2013-01-24 06:21:00,10.4,1.6,29.47,WSW,248,2.0,9.0,67,0.00,,,0.00,meteohub,2013-01-24 11:21:00,
2013-01-24 06:26:00,10.2,1.4,29.47,North,0,3.0,9.0,67,0.00,,,0.00,meteohub,2013-01-24 11:26:00,
2013-01-24 06:31:00,10.0,1.2,29.47,WNW,292,1.0,9.0,67,0.00,,,0.00,meteohub,2013-01-24 11:31:00,
2013-01-24 06:36:00,9.9,1.0,29.47,North,0,2.0,5.0,67,0.00,,,0.00,meteohub,2013-01-24 11:36:00,
2013-01-24 06:41:00,9.7,0.9,29.47,NNW,338,0.0,5.0,67,0.00,,,0.00,meteohub,2013-01-24 11:41:00,
2013-01-24 06:47:00,9.5,0.9,29.50,WNW,292,1.0,6.0,67,0.00,,,0.00,meteohub,2013-01-24 11:47:00,
2013-01-24 06:52:00,9.5,0.9,29.50,North,0,3.0,6.0,67,0.00,,,0.00,meteohub,2013-01-24 11:52:00,
2013-01-24 06:57:00,9.5,0.9,29.50,NW,315,2.0,6.0,67,0.00,,,0.00,meteohub,2013-01-24 11:57:00,
2013-01-24 07:02:00,9.5,0.9,29.50,West,270,3.0,4.0,67,0.00,,,0.00,meteohub,2013-01-24 12:02:00,
2013-01-24 07:07:00,9.3,0.7,29.50,North,0,5.0,5.0,67,0.00,,,0.00,meteohub,2013-01-24 12:07:00,
2013-01-24 07:12:00,9.5,0.9,29.50,WSW,248,4.0,5.0,67,0.00,,,0.00,meteohub,2013-01-24 12:12:00,
2013-01-24 07:17:00,9.5,0.9,29.53,NW,315,2.0,5.0,67,0.00,,,0.00,meteohub,2013-01-24 12:17:00,
2013-01-24 07:22:00,9.3,0.7,29.53,NW,315,3.0,6.0,67,0.00,,,0.00,meteohub,2013-01-24 12:22:00,
2013-01-24 07:27:00,9.1,0.5,29.53,West,270,0.0,6.0,67,0.00,,,0.00,meteohub,2013-01-24 12:27:00,
2013-01-24 07:32:00,9.0,0.3,29.53,West,270,0.0,6.0,67,0.00,,,0.00,meteohub,2013-01-24 12:32:00,
2013-01-24 07:37:00,8.8,0.1,29.53,NW,315,4.0,6.0,67,0.00,,,0.00,meteohub,2013-01-24 12:37:00,
2013-01-24 07:42:00,8.8,0.1,29.53,West,270,1.0,6.0,67,0.00,,,0.00,meteohub,2013-01-24 12:42:00,
2013-01-24 07:47:00,8.8,0.1,29.53,SW,225,3.0,6.0,67,0.00,,,0.00,meteohub,2013-01-24 12:47:00,
2013-01-24 07:52:00,8.6,0.0,29.53,North,0,2.0,6.0,67,0.00,,,0.00,meteohub,2013-01-24 12:52:00,
2013-01-24 07:57:00,8.6,0.0,29.53,WSW,248,1.0,5.0,67,0.00,,,0.00,meteohub,2013-01-24 12:57:00,
2013-01-24 08:02:00,8.4,-0.2,29.56,WNW,292,1.0,5.0,67,0.00,,,0.00,meteohub,2013-01-24 13:02:00,
2013-01-24 08:07:00,8.4,-0.2,29.56,North,0,2.0,5.0,67,0.00,,,0.00,meteohub,2013-01-24 13:07:00,
2013-01-24 08:12:00,8.4,-0.2,29.56,WNW,292,2.0,5.0,67,0.00,,,0.00,meteohub,2013-01-24 13:12:00,
2013-01-24 08:17:00,8.2,-0.4,29.59,North,0,3.0,5.0,67,0.00,,,0.00,meteohub,2013-01-24 13:17:00,
2013-01-24 08:22:00,8.4,-0.2,29.59,WNW,292,0.0,5.0,67,0.00,,,0.00,meteohub,2013-01-24 13:22:00,
2013-01-24 08:27:00,8.4,-0.2,29.59,North,0,1.0,4.0,67,0.00,,,0.00,meteohub,2013-01-24 13:27:00,
2013-01-24 08:32:00,8.6,0.0,29.59,WNW,292,1.0,6.0,67,0.00,,,0.00,meteohub,2013-01-24 13:32:00,
2013-01-24 08:37:00,8.8,0.1,29.59,West,270,0.0,6.0,67,0.00,,,0.00,meteohub,2013-01-24 13:37:00,
2013-01-24 08:42:00,9.1,0.5,29.59,NNW,338,2.0,6.0,67,0.00,,,0.00,meteohub,2013-01-24 13:42:00,
2013-01-24 08:47:00,9.1,0.5,29.56,West,270,1.0,5.0,67,0.00,,,0.00,meteohub,2013-01-24 13:47:00,
2013-01-24 08:52:00,9.5,0.9,29.56,NW,315,3.0,5.0,67,0.00,,,0.00,meteohub,2013-01-24 13:52:00,
2013-01-24 08:57:00,9.7,0.9,29.56,SE,135,2.0,7.0,67,0.00,,,0.00,meteohub,2013-01-24 13:57:00,
2013-01-24 09:02:00,10.0,1.2,29.59,NW,315,2.0,7.0,67,0.00,,,0.00,meteohub,2013-01-24 14:02:00,
2013-01-24 09:07:00,10.4,1.6,29.59,North,0,3.0,7.0,67,0.00,,,0.00,meteohub,2013-01-24 14:07:00,
2013-01-24 09:12:00,10.4,1.6,29.59,NW,315,1.0,4.0,67,0.00,,,0.00,meteohub,2013-01-24 14:12:00,
2013-01-24 09:17:00,10.9,2.1,29.59,WNW,292,1.0,8.0,67,0.00,,,0.00,meteohub,2013-01-24 14:17:00,
2013-01-24 09:22:00,11.1,2.3,29.59,NNW,338,4.0,8.0,67,0.00,,,0.00,meteohub,2013-01-24 14:22:00,
2013-01-24 09:27:00,11.3,2.5,29.59,SE,135,3.0,6.0,67,0.00,,,0.00,meteohub,2013-01-24 14:27:00,
2013-01-24 09:32:00,11.8,3.0,29.62,West,270,3.0,6.0,67,0.00,,,0.00,meteohub,2013-01-24 14:32:00,
2013-01-24 09:37:00,12.0,3.2,29.62,NW,315,2.0,6.0,67,0.00,,,0.00,meteohub,2013-01-24 14:37:00,
2013-01-24 09:42:00,12.2,3.4,29.62,WNW,292,1.0,6.0,67,0.00,,,0.00,meteohub,2013-01-24 14:42:00,
2013-01-24 09:47:00,12.6,3.7,29.62,NNW,338,2.0,8.0,67,0.00,,,0.00,meteohub,2013-01-24 14:47:00,
2013-01-24 09:52:00,12.7,3.9,29.62,NE,45,3.0,8.0,67,0.00,,,0.00,meteohub,2013-01-24 14:52:00,
2013-01-24 09:57:00,12.9,4.1,29.62,North,0,3.0,6.0,67,0.00,,,0.00,meteohub,2013-01-24 14:57:00,
2013-01-24 10:02:00,13.3,4.5,29.65,NW,315,3.0,4.0,67,0.00,,,0.00,meteohub,2013-01-24 15:02:00,
2013-01-24 10:07:00,13.5,4.6,29.65,NW,315,3.0,5.0,67,0.00,,,0.00,meteohub,2013-01-24 15:07:00,
2013-01-24 10:12:00,13.6,4.8,29.65,North,0,4.0,6.0,67,0.00,,,0.00,meteohub,2013-01-24 15:12:00,
2013-01-24 10:17:00,14.0,0.9,29.65,NNW,338,5.0,6.0,55,0.00,,,0.00,meteohub,2013-01-24 15:17:00,
2013-01-24 10:22:00,14.5,1.4,29.65,ENE,68,2.0,6.0,55,0.00,,,0.00,meteohub,2013-01-24 15:22:00,
2013-01-24 10:27:00,14.9,1.8,29.65,ENE,68,2.0,6.0,55,0.00,,,0.00,meteohub,2013-01-24 15:27:00,
2013-01-24 10:32:00,15.4,1.8,29.65,NW,315,4.0,5.0,54,0.00,,,0.00,meteohub,2013-01-24 15:32:00,
2013-01-24 10:37:00,15.6,1.6,29.65,North,0,6.0,6.0,53,0.00,,,0.00,meteohub,2013-01-24 15:37:00,
2013-01-24 10:42:00,15.8,0.9,29.65,North,0,3.0,6.0,51,0.00,,,0.00,meteohub,2013-01-24 15:42:00,
2013-01-24 10:47:00,16.0,0.7,29.65,North,0,1.0,6.0,50,0.00,,,0.00,meteohub,2013-01-24 15:47:00,
2013-01-24 10:52:00,16.0,0.1,29.65,NW,315,1.0,7.0,49,0.00,,,0.00,meteohub,2013-01-24 15:52:00,
2013-01-24 10:58:00,16.2,0.3,29.65,NW,315,3.0,7.0,49,0.00,,,0.00,meteohub,2013-01-24 15:58:00,
2013-01-24 11:03:00,16.5,0.7,29.65,NNW,338,4.0,7.0,49,0.00,,,0.00,meteohub,2013-01-24 16:03:00,
2013-01-24 11:08:00,17.1,1.2,29.65,NW,315,4.0,6.0,49,0.00,,,0.00,meteohub,2013-01-24 16:08:00,
2013-01-24 11:13:00,16.5,0.3,29.71,NNW,338,6.0,6.0,48,0.00,,,0.00,meteohub,2013-01-24 16:13:00,
2013-01-24 11:18:00,16.7,0.0,29.71,NNE,22,9.0,9.0,47,0.00,,,0.00,meteohub,2013-01-24 16:18:00,
2013-01-24 11:23:00,17.6,0.9,29.71,NNW,338,6.0,6.0,47,0.00,,,0.00,meteohub,2013-01-24 16:23:00,
2013-01-24 11:28:00,19.0,2.1,29.68,NW,315,3.0,9.0,47,0.00,,,0.00,meteohub,2013-01-24 16:28:00,
2013-01-24 11:33:00,19.8,2.3,29.68,NE,45,2.0,9.0,46,0.00,,,0.00,meteohub,2013-01-24 16:33:00,
2013-01-24 11:38:00,20.3,2.3,29.68,WNW,292,4.0,6.0,45,0.00,,,0.00,meteohub,2013-01-24 16:38:00,
2013-01-24 11:43:00,20.8,3.4,29.68,NNW,338,2.0,4.0,46,0.00,,,0.00,meteohub,2013-01-24 16:43:00,
2013-01-24 11:49:00,20.8,2.8,29.68,NNE,22,2.0,7.0,45,0.00,,,0.00,meteohub,2013-01-24 16:49:00,
2013-01-24 11:54:00,21.4,2.8,29.68,NNE,22,1.0,7.0,44,0.00,,,0.00,meteohub,2013-01-24 16:54:00,
2013-01-24 11:59:00,21.6,2.5,29.68,NW,315,2.0,5.0,43,0.00,,,0.00,meteohub,2013-01-24 16:59:00,
2013-01-24 12:04:00,22.3,3.2,29.68,NNE,22,0.0,5.0,43,0.00,,,0.00,meteohub,2013-01-24 17:04:00,
2013-01-24 12:09:00,22.8,3.7,29.68,West,270,3.0,5.0,43,0.00,,,0.00,meteohub,2013-01-24 17:09:00,
2013-01-24 12:14:00,22.8,3.2,29.68,NNW,338,2.0,5.0,42,0.00,,,0.00,meteohub,2013-01-24 17:14:00,
2013-01-24 12:19:00,22.5,1.8,29.68,West,270,5.0,6.0,40,0.00,,,0.00,meteohub,2013-01-24 17:19:00,
2013-01-24 12:24:00,22.8,3.2,29.68,NW,315,3.0,6.0,42,0.00,,,0.00,meteohub,2013-01-24 17:24:00,
2013-01-24 12:29:00,22.6,2.5,29.68,NNW,338,2.0,7.0,41,0.00,,,0.00,meteohub,2013-01-24 17:29:00,
2013-01-24 12:35:00,22.5,1.8,29.68,WNW,292,2.0,7.0,40,0.00,,,0.00,meteohub,2013-01-24 17:35:00,
2013-01-24 12:40:00,22.8,1.6,29.68,ENE,68,3.0,4.0,39,0.00,,,0.00,meteohub,2013-01-24 17:40:00,
2013-01-24 12:45:00,23.9,3.2,29.65,North,0,4.0,5.0,40,0.00,,,0.00,meteohub,2013-01-24 17:45:00,
2013-01-24 12:50:00,23.7,1.9,29.65,NNW,338,3.0,6.0,38,0.00,,,0.00,meteohub,2013-01-24 17:50:00,
2013-01-24 12:55:00,23.4,1.0,29.65,SSE,158,2.0,6.0,37,0.00,,,0.00,meteohub,2013-01-24 17:55:00,
2013-01-24 13:00:00,23.5,1.8,29.65,NW,315,1.0,6.0,38,0.00,,,0.00,meteohub,2013-01-24 18:00:00,
2013-01-24 13:05:00,23.2,0.1,29.65,NW,315,6.0,7.0,36,0.00,,,0.00,meteohub,2013-01-24 18:05:00,
2013-01-24 13:10:00,23.4,1.0,29.65,NNW,338,1.0,9.0,37,0.00,,,0.00,meteohub,2013-01-24 18:10:00,
2013-01-24 13:16:00,23.5,0.5,29.65,West,270,4.0,9.0,36,0.00,,,0.00,meteohub,2013-01-24 18:16:00,
2013-01-24 13:21:00,23.9,0.9,29.65,WNW,292,1.0,9.0,36,0.00,,,0.00,meteohub,2013-01-24 18:21:00,
2013-01-24 13:26:00,24.6,1.6,29.65,NE,45,2.0,9.0,36,0.00,,,0.00,meteohub,2013-01-24 18:26:00,
2013-01-24 13:31:00,25.7,2.5,29.65,NW,315,2.0,9.0,36,0.00,,,0.00,meteohub,2013-01-24 18:31:00,
2013-01-24 13:36:00,26.1,2.8,29.65,NW,315,4.0,4.0,36,0.00,,,0.00,meteohub,2013-01-24 18:36:00,
2013-01-24 13:41:00,25.7,1.9,29.65,NNW,338,2.0,6.0,35,0.00,,,0.00,meteohub,2013-01-24 18:41:00,
2013-01-24 13:47:00,25.5,1.0,29.65,NNW,338,2.0,6.0,34,0.00,,,0.00,meteohub,2013-01-24 18:47:00,
2013-01-24 13:52:00,25.2,0.7,29.65,WNW,292,6.0,6.0,34,0.00,,,0.00,meteohub,2013-01-24 18:52:00,
2013-01-24 13:57:00,24.8,1.0,29.65,WNW,292,3.0,6.0,35,0.00,,,0.00,meteohub,2013-01-24 18:57:00,
2013-01-24 14:02:00,25.0,0.7,29.65,West,270,3.0,6.0,34,0.00,,,0.00,meteohub,2013-01-24 19:02:00,
2013-01-24 14:07:00,26.2,2.3,29.65,West,270,6.0,8.0,35,0.00,,,0.00,meteohub,2013-01-24 19:07:00,
2013-01-24 14:12:00,25.5,1.0,29.65,NNE,22,1.0,8.0,34,0.00,,,0.00,meteohub,2013-01-24 19:12:00,
2013-01-24 14:17:00,26.2,1.8,29.65,SW,225,1.0,8.0,34,0.00,,,0.00,meteohub,2013-01-24 19:17:00,
2013-01-24 14:22:00,27.0,3.0,29.65,WNW,292,3.0,6.0,35,0.00,,,0.00,meteohub,2013-01-24 19:22:00,
2013-01-24 14:27:00,27.0,2.3,29.65,NE,45,0.0,6.0,34,0.00,,,0.00,meteohub,2013-01-24 19:27:00,
2013-01-24 14:32:00,27.3,2.1,29.65,West,270,3.0,6.0,33,0.00,,,0.00,meteohub,2013-01-24 19:32:00,
2013-01-24 14:37:00,26.2,1.0,29.65,West,270,4.0,6.0,33,0.00,,,0.00,meteohub,2013-01-24 19:37:00,
2013-01-24 14:42:00,27.5,2.1,29.65,WSW,248,3.0,6.0,33,0.00,,,0.00,meteohub,2013-01-24 19:42:00,
2013-01-24 14:47:00,27.7,2.3,29.65,North,0,1.0,6.0,33,0.00,,,0.00,meteohub,2013-01-24 19:47:00,
2013-01-24 14:52:00,28.8,3.4,29.65,WNW,292,2.0,6.0,33,0.00,,,0.00,meteohub,2013-01-24 19:52:00,
2013-01-24 14:57:00,29.1,3.6,29.65,NW,315,1.0,4.0,33,0.00,,,0.00,meteohub,2013-01-24 19:57:00,
2013-01-24 15:02:00,28.6,2.5,29.65,North,0,1.0,4.0,32,0.00,,,0.00,meteohub,2013-01-24 20:02:00,
2013-01-24 15:07:00,28.9,2.8,29.65,WSW,248,2.0,5.0,32,0.00,,,0.00,meteohub,2013-01-24 20:07:00,
2013-01-24 15:12:00,27.1,1.2,29.65,WSW,248,4.0,6.0,32,0.00,,,0.00,meteohub,2013-01-24 20:12:00,
2013-01-24 15:17:00,26.8,0.9,29.65,WNW,292,5.0,6.0,32,0.00,,,0.00,meteohub,2013-01-24 20:17:00,
2013-01-24 15:22:00,26.2,0.5,29.65,SW,225,3.0,6.0,32,0.00,,,0.00,meteohub,2013-01-24 20:22:00,
2013-01-24 15:27:00,26.6,1.4,29.65,North,0,4.0,8.0,33,0.00,,,0.00,meteohub,2013-01-24 20:27:00,
2013-01-24 15:32:00,27.0,1.0,29.68,NE,45,1.0,8.0,32,0.00,,,0.00,meteohub,2013-01-24 20:32:00,
2013-01-24 15:37:00,27.1,1.2,29.68,NW,315,2.0,5.0,32,0.00,,,0.00,meteohub,2013-01-24 20:37:00,
2013-01-24 15:42:00,26.4,0.7,29.68,West,270,2.0,6.0,32,0.00,,,0.00,meteohub,2013-01-24 20:42:00,
2013-01-24 15:47:00,24.1,-0.8,29.65,WSW,248,1.0,6.0,33,0.00,,,0.00,meteohub,2013-01-24 20:47:00,
2013-01-24 15:52:00,22.3,-2.4,29.65,West,270,3.0,6.0,33,0.00,,,0.00,meteohub,2013-01-24 20:52:00,
2013-01-24 15:57:00,21.2,-2.7,29.65,North,0,1.0,5.0,34,0.00,,,0.00,meteohub,2013-01-24 20:57:00,
2013-01-24 16:02:00,20.7,-3.3,29.65,West,270,2.0,5.0,34,0.00,,,0.00,meteohub,2013-01-24 21:02:00,
2013-01-24 16:07:00,19.9,-3.8,29.65,West,270,4.0,5.0,34,0.00,,,0.00,meteohub,2013-01-24 21:07:00,
2013-01-24 16:12:00,19.4,-4.4,29.65,WSW,248,0.0,5.0,34,0.00,,,0.00,meteohub,2013-01-24 21:12:00,
2013-01-24 16:17:00,19.2,-4.5,29.68,WNW,292,3.0,5.0,34,0.00,,,0.00,meteohub,2013-01-24 21:17:00,
2013-01-24 16:22:00,18.7,-5.1,29.68,West,270,3.0,5.0,34,0.00,,,0.00,meteohub,2013-01-24 21:22:00,
2013-01-24 16:27:00,18.7,-5.1,29.68,NW,315,2.0,6.0,34,0.00,,,0.00,meteohub,2013-01-24 21:27:00,
2013-01-24 16:32:00,18.1,-5.4,29.68,WSW,248,2.0,6.0,34,0.00,,,0.00,meteohub,2013-01-24 21:32:00,
2013-01-24 16:37:00,18.1,-5.4,29.68,WSW,248,0.0,6.0,34,0.00,,,0.00,meteohub,2013-01-24 21:37:00,
2013-01-24 16:42:00,17.6,-6.0,29.68,WSW,248,0.0,3.0,34,0.00,,,0.00,meteohub,2013-01-24 21:42:00,
2013-01-24 16:47:00,17.6,-6.0,29.68,North,-999,-999.0,2.0,34,0.00,,,0.00,meteohub,2013-01-24 21:47:00,
2013-01-24 16:58:00,16.5,-6.3,29.68,WNW,292,3.0,3.0,35,0.00,,,0.00,meteohub,2013-01-24 21:58:00,
2013-01-24 17:04:00,16.5,-6.3,29.68,WNW,292,3.0,3.0,35,0.00,,,0.00,meteohub,2013-01-24 22:04:00,
2013-01-24 17:09:00,16.0,-6.9,29.68,WSW,248,5.0,5.0,35,0.00,,,0.00,meteohub,2013-01-24 22:09:00,
2013-01-24 17:14:00,16.0,-6.9,29.68,West,270,0.0,3.0,35,0.00,,,0.00,meteohub,2013-01-24 22:14:00,
2013-01-24 17:19:00,15.1,-7.6,29.71,West,270,0.0,5.0,35,0.00,,,0.00,meteohub,2013-01-24 22:19:00,
2013-01-24 17:24:00,14.9,-7.8,29.71,West,270,1.0,5.0,35,0.00,,,0.00,meteohub,2013-01-24 22:24:00,
2013-01-24 17:29:00,14.5,-8.1,29.71,West,270,0.0,1.0,35,0.00,,,0.00,meteohub,2013-01-24 22:29:00,
2013-01-24 17:34:00,14.4,-8.3,29.71,WNW,292,0.0,3.0,35,0.00,,,0.00,meteohub,2013-01-24 22:34:00,
2013-01-24 17:39:00,13.8,-8.1,29.71,WNW,292,0.0,3.0,36,0.00,,,0.00,meteohub,2013-01-24 22:39:00,
2013-01-24 17:44:00,13.5,-8.5,29.71,West,270,0.0,3.0,36,0.00,,,0.00,meteohub,2013-01-24 22:44:00,
2013-01-24 17:49:00,12.9,-9.0,29.71,WNW,292,0.0,3.0,36,0.00,,,0.00,meteohub,2013-01-24 22:49:00,
2013-01-24 17:55:00,12.9,-9.0,29.71,WNW,292,0.0,0.0,36,0.00,,,0.00,meteohub,2013-01-24 22:55:00,
2013-01-24 18:00:00,12.9,-9.0,29.68,West,270,0.0,0.0,36,0.00,,,0.00,meteohub,2013-01-24 23:00:00,
2013-01-24 18:05:00,12.6,-9.2,29.68,NW,315,0.0,2.0,36,0.00,,,0.00,meteohub,2013-01-24 23:05:00,
2013-01-24 18:10:00,12.4,-9.4,29.68,NW,315,0.0,2.0,36,0.00,,,0.00,meteohub,2013-01-24 23:10:00,
2013-01-24 18:15:00,12.4,-9.4,29.68,NNW,338,0.0,2.0,36,0.00,,,0.00,meteohub,2013-01-24 23:15:00,
2013-01-24 18:20:00,12.6,-9.2,29.68,NW,315,1.0,2.0,36,0.00,,,0.00,meteohub,2013-01-24 23:20:00,
2013-01-24 18:25:00,12.6,-9.2,29.68,NNW,338,1.0,2.0,36,0.00,,,0.00,meteohub,2013-01-24 23:25:00,
2013-01-24 18:30:00,12.4,-9.4,29.71,NNW,338,0.0,2.0,36,0.00,,,0.00,meteohub,2013-01-24 23:30:00,
2013-01-24 18:35:00,12.2,-9.6,29.71,NNW,338,1.0,2.0,36,0.00,,,0.00,meteohub,2013-01-24 23:35:00,
2013-01-24 18:41:00,12.2,-9.6,29.71,NNW,338,0.0,2.0,36,0.00,,,0.00,meteohub,2013-01-24 23:41:00,
2013-01-24 18:46:00,12.0,-9.8,29.68,NNW,338,0.0,2.0,36,0.00,,,0.00,meteohub,2013-01-24 23:46:00,
2013-01-24 18:51:00,12.0,-9.8,29.68,NNW,338,2.0,2.0,36,0.00,,,0.00,meteohub,2013-01-24 23:51:00,
2013-01-24 18:56:00,11.8,-9.9,29.68,NNW,338,0.0,2.0,36,0.00,,,0.00,meteohub,2013-01-24 23:56:00,
2013-01-24 19:01:00,11.8,-9.9,29.71,NNW,338,0.0,2.0,36,0.00,,,0.00,meteohub,2013-01-25 00:01:00,
2013-01-24 19:06:00,11.8,-9.9,29.71,NNW,338,0.0,2.0,36,0.00,,,0.00,meteohub,2013-01-25 00:06:00,
2013-01-24 19:11:00,11.7,-10.1,29.71,NNW,338,3.0,3.0,36,0.00,,,0.00,meteohub,2013-01-25 00:11:00,
2013-01-24 19:16:00,11.7,-10.1,29.68,WNW,292,0.0,3.0,36,0.00,,,0.00,meteohub,2013-01-25 00:16:00,
2013-01-24 19:21:00,11.7,-10.1,29.68,NNW,338,0.0,3.0,36,0.00,,,0.00,meteohub,2013-01-25 00:21:00,
2013-01-24 19:26:00,11.3,-10.5,29.68,West,270,0.0,3.0,36,0.00,,,0.00,meteohub,2013-01-25 00:26:00,
2013-01-24 19:31:00,11.1,-10.7,29.68,NW,315,0.0,3.0,36,0.00,,,0.00,meteohub,2013-01-25 00:31:00,
2013-01-24 19:36:00,10.9,-10.8,29.68,West,270,0.0,3.0,36,0.00,,,0.00,meteohub,2013-01-25 00:36:00,
2013-01-24 19:42:00,10.8,-10.8,29.68,WNW,292,2.0,2.0,36,0.00,,,0.00,meteohub,2013-01-25 00:42:00,
2013-01-24 19:47:00,10.8,-10.8,29.68,WNW,292,0.0,2.0,36,0.00,,,0.00,meteohub,2013-01-25 00:47:00,
2013-01-24 19:52:00,10.6,-11.0,29.68,WNW,292,0.0,2.0,36,0.00,,,0.00,meteohub,2013-01-25 00:52:00,
2013-01-24 19:57:00,10.4,-11.2,29.68,NW,315,1.0,2.0,36,0.00,,,0.00,meteohub,2013-01-25 00:57:00,
2013-01-24 20:02:00,10.4,-11.2,29.68,NW,315,0.0,1.0,36,0.00,,,0.00,meteohub,2013-01-25 01:02:00,
2013-01-24 20:07:00,10.4,-11.2,29.68,NW,315,0.0,1.0,36,0.00,,,0.00,meteohub,2013-01-25 01:07:00,
2013-01-24 20:12:00,10.4,-11.2,29.68,NW,315,0.0,1.0,36,0.00,,,0.00,meteohub,2013-01-25 01:12:00,
2013-01-24 20:17:00,10.6,-11.0,29.68,NNE,22,0.0,0.0,36,0.00,,,0.00,meteohub,2013-01-25 01:17:00,
2013-01-24 20:22:00,10.6,-11.0,29.68,NE,45,0.0,0.0,36,0.00,,,0.00,meteohub,2013-01-25 01:22:00,
2013-01-24 20:27:00,10.8,-10.8,29.68,NE,45,0.0,1.0,36,0.00,,,0.00,meteohub,2013-01-25 01:27:00,
2013-01-24 20:32:00,10.8,-10.8,29.68,ENE,68,0.0,1.0,36,0.00,,,0.00,meteohub,2013-01-25 01:32:00,
2013-01-24 20:38:00,10.8,-10.8,29.68,ENE,68,0.0,1.0,36,0.00,,,0.00,meteohub,2013-01-25 01:38:00,
2013-01-24 20:43:00,10.8,-10.8,29.65,ENE,68,0.0,1.0,36,0.00,,,0.00,meteohub,2013-01-25 01:43:00,
2013-01-24 20:48:00,10.9,-10.8,29.65,East,90,0.0,1.0,36,0.00,,,0.00,meteohub,2013-01-25 01:48:00,
2013-01-24 20:53:00,10.9,-10.8,29.65,East,90,0.0,2.0,36,0.00,,,0.00,meteohub,2013-01-25 01:53:00,
2013-01-24 20:58:00,10.9,-10.8,29.65,East,90,0.0,2.0,36,0.00,,,0.00,meteohub,2013-01-25 01:58:00,
2013-01-24 21:03:00,10.9,-10.8,29.65,East,90,0.0,2.0,36,0.00,,,0.00,meteohub,2013-01-25 02:03:00,
2013-01-24 21:08:00,10.9,-10.8,29.65,ENE,68,2.0,0.0,36,0.00,,,0.00,meteohub,2013-01-25 02:08:00,
2013-01-24 21:13:00,10.9,-10.8,29.65,ESE,112,0.0,2.0,36,0.00,,,0.00,meteohub,2013-01-25 02:13:00,
2013-01-24 21:18:00,10.9,-10.8,29.65,East,90,0.0,2.0,36,0.00,,,0.00,meteohub,2013-01-25 02:18:00,
2013-01-24 21:24:00,10.9,-10.8,29.65,East,90,0.0,2.0,36,0.00,,,0.00,meteohub,2013-01-25 02:24:00,
2013-01-24 21:29:00,11.1,-10.7,29.65,East,90,0.0,2.0,36,0.00,,,0.00,meteohub,2013-01-25 02:29:00,
2013-01-24 21:34:00,11.1,-10.7,29.65,East,90,0.0,2.0,36,-99.99,,,0.00,meteohub,2013-01-25 02:34:00,
2013-01-24 21:39:00,11.1,-10.7,29.65,East,90,0.0,2.0,36,-99.99,,,0.00,meteohub,2013-01-25 02:39:00,
2013-01-24 21:44:00,11.1,-10.7,29.65,East,90,0.0,2.0,36,-99.99,,,0.00,meteohub,2013-01-25 02:44:00,
2013-01-24 21:49:00,11.1,-10.7,29.65,East,90,0.0,1.0,36,-99.99,,,0.00,meteohub,2013-01-25 02:49:00,
2013-01-24 21:54:00,11.1,-10.7,29.65,East,90,1.0,2.0,36,0.00,,,0.00,meteohub,2013-01-25 02:54:00,
2013-01-24 21:59:00,11.1,-10.7,29.65,East,90,0.0,2.0,36,0.00,,,0.00,meteohub,2013-01-25 02:59:00,
2013-01-24 22:04:00,11.1,-10.7,29.65,East,90,0.0,2.0,36,0.00,,,0.00,meteohub,2013-01-25 03:04:00,
2013-01-24 22:09:00,11.1,-10.7,29.65,East,90,1.0,2.0,36,0.00,,,0.00,meteohub,2013-01-25 03:09:00,
2013-01-24 22:14:00,11.1,-10.7,29.65,East,90,0.0,3.0,36,0.00,,,0.00,meteohub,2013-01-25 03:14:00,
2013-01-24 22:20:00,11.3,-10.5,29.65,East,90,0.0,3.0,36,0.00,,,0.00,meteohub,2013-01-25 03:20:00,
2013-01-24 22:25:00,11.3,-10.5,29.65,East,90,0.0,3.0,36,0.00,,,0.00,meteohub,2013-01-25 03:25:00,
2013-01-24 22:30:00,11.3,-10.5,29.65,ESE,112,0.0,1.0,36,0.00,,,0.00,meteohub,2013-01-25 03:30:00,
2013-01-24 22:35:00,11.3,-10.5,29.65,ENE,68,1.0,0.0,36,0.00,,,0.00,meteohub,2013-01-25 03:35:00,
2013-01-24 22:40:00,11.3,-10.5,29.65,ENE,68,0.0,2.0,36,0.00,,,0.00,meteohub,2013-01-25 03:40:00,
2013-01-24 22:45:00,11.3,-10.5,29.65,SE,135,1.0,2.0,36,0.00,,,0.00,meteohub,2013-01-25 03:45:00,
2013-01-24 22:50:00,11.3,-10.5,29.65,ESE,112,1.0,3.0,36,0.00,,,0.00,meteohub,2013-01-25 03:50:00,
2013-01-24 22:55:00,11.3,-10.5,29.65,ESE,112,0.0,3.0,36,0.00,,,0.00,meteohub,2013-01-25 03:55:00,
2013-01-24 23:00:00,11.3,-10.5,29.65,East,90,0.0,2.0,36,0.00,,,0.00,meteohub,2013-01-25 04:00:00,
2013-01-24 23:05:00,11.3,-10.5,29.65,East,90,1.0,2.0,36,0.00,,,0.00,meteohub,2013-01-25 04:05:00,
2013-01-24 23:11:00,11.3,-10.5,29.65,East,90,0.0,2.0,36,0.00,,,0.00,meteohub,2013-01-25 04:11:00,
2013-01-24 23:16:00,11.3,-10.5,29.65,ENE,68,1.0,2.0,36,0.00,,,0.00,meteohub,2013-01-25 04:16:00,
2013-01-24 23:21:00,11.3,-10.5,29.65,ESE,112,0.0,3.0,36,0.00,,,0.00,meteohub,2013-01-25 04:21:00,
2013-01-24 23:26:00,11.3,-10.5,29.65,East,90,2.0,3.0,36,0.00,,,0.00,meteohub,2013-01-25 04:26:00,
2013-01-24 23:31:00,11.3,-10.5,29.65,ENE,68,1.0,2.0,36,0.00,,,0.00,meteohub,2013-01-25 04:31:00,
2013-01-24 23:36:00,11.3,-10.5,29.65,ENE,68,1.0,2.0,36,0.00,,,0.00,meteohub,2013-01-25 04:36:00,
2013-01-24 23:41:00,11.1,-10.7,29.65,East,90,1.0,2.0,36,0.00,,,0.00,meteohub,2013-01-25 04:41:00,
2013-01-24 23:46:00,11.1,-10.7,29.65,East,90,1.0,3.0,36,0.00,,,0.00,meteohub,2013-01-25 04:46:00,
2013-01-24 23:51:00,11.3,-10.5,29.65,WSW,248,0.0,3.0,36,0.00,,,0.00,meteohub,2013-01-25 04:51:00,
2013-01-24 23:56:00,11.3,-10.5,29.65,East,90,0.0,3.0,36,0.00,,,0.00,meteohub,2013-01-25 04:56:00,